sensor_id;sensor_type;location;lat;lon;timestamp;temperature;humidity
24254;DHT22;12381;51.152;4.172;2022-10-16T00:00:57;15.30;99.90
24254;DHT22;12381;51.152;4.172;2022-10-16T00:03:23;15.40;99.90
24254;DHT22;12381;51.152;4.172;2022-10-16T00:05:49;15.40;99.90
24254;DHT22;12381;51.152;4.172;2022-10-16T00:08:15;15.40;99.90
24254;DHT22;12381;51.152;4.172;2022-10-16T00:10:40;15.50;99.90
24254;DHT22;12381;51.152;4.172;2022-10-16T00:13:06;15.50;99.90
24254;DHT22;12381;51.152;4.172;2022-10-16T00:15:36;15.50;99.90
24254;DHT22;12381;51.152;4.172;2022-10-16T00:18:04;15.50;99.90
24254;DHT22;12381;51.152;4.172;2022-10-16T00:20:30;15.50;99.90
24254;DHT22;12381;51.152;4.172;2022-10-16T00:22:58;15.50;99.90
24254;DHT22;12381;51.152;4.172;2022-10-16T00:25:24;15.40;99.90
24254;DHT22;12381;51.152;4.172;2022-10-16T00:27:50;15.40;99.90
24254;DHT22;12381;51.152;4.172;2022-10-16T00:30:15;15.50;99.90
24254;DHT22;12381;51.152;4.172;2022-10-16T00:32:41;15.40;99.90
24254;DHT22;12381;51.152;4.172;2022-10-16T00:35:07;15.40;99.90
24254;DHT22;12381;51.152;4.172;2022-10-16T00:37:32;15.40;99.90
24254;DHT22;12381;51.152;4.172;2022-10-16T00:39:58;15.30;99.90
24254;DHT22;12381;51.152;4.172;2022-10-16T00:42:24;15.30;99.90
24254;DHT22;12381;51.152;4.172;2022-10-16T00:44:50;15.30;99.90
24254;DHT22;12381;51.152;4.172;2022-10-16T00:50:07;15.30;99.90
24254;DHT22;12381;51.152;4.172;2022-10-16T00:52:33;15.20;99.90
24254;DHT22;12381;51.152;4.172;2022-10-16T00:55:00;15.20;99.90
24254;DHT22;12381;51.152;4.172;2022-10-16T00:57:27;15.10;99.90
24254;DHT22;12381;51.152;4.172;2022-10-16T00:59:53;15.10;99.90
24254;DHT22;12381;51.152;4.172;2022-10-16T01:02:19;15.10;99.90
24254;DHT22;12381;51.152;4.172;2022-10-16T01:04:48;15.20;99.90
24254;DHT22;12381;51.152;4.172;2022-10-16T01:20:33;14.90;99.90
24254;DHT22;12381;51.152;4.172;2022-10-16T01:23:10;14.90;99.90
24254;DHT22;12381;51.152;4.172;2022-10-16T01:26:14;15.00;99.90
24254;DHT22;12381;51.152;4.172;2022-10-16T01:28:51;15.00;99.90
24254;DHT22;12381;51.152;4.172;2022-10-16T01:31:19;15.00;99.90
24254;DHT22;12381;51.152;4.172;2022-10-16T01:33:55;14.90;99.90
24254;DHT22;12381;51.152;4.172;2022-10-16T01:36:27;14.90;99.90
24254;DHT22;12381;51.152;4.172;2022-10-16T01:38:56;14.90;99.90
24254;DHT22;12381;51.152;4.172;2022-10-16T01:41:51;14.90;99.90
24254;DHT22;12381;51.152;4.172;2022-10-16T01:44:19;14.80;99.90
24254;DHT22;12381;51.152;4.172;2022-10-16T01:46:48;14.80;99.90
24254;DHT22;12381;51.152;4.172;2022-10-16T01:49:17;14.90;99.90
24254;DHT22;12381;51.152;4.172;2022-10-16T01:51:45;14.90;99.90
24254;DHT22;12381;51.152;4.172;2022-10-16T01:54:14;14.80;99.90
24254;DHT22;12381;51.152;4.172;2022-10-16T01:56:41;14.80;99.90
24254;DHT22;12381;51.152;4.172;2022-10-16T01:59:13;14.80;99.90
24254;DHT22;12381;51.152;4.172;2022-10-16T02:06:47;14.80;99.90
24254;DHT22;12381;51.152;4.172;2022-10-16T02:09:13;14.80;99.90
24254;DHT22;12381;51.152;4.172;2022-10-16T02:11:42;14.70;99.90
24254;DHT22;12381;51.152;4.172;2022-10-16T02:14:08;14.70;99.90
24254;DHT22;12381;51.152;4.172;2022-10-16T02:16:45;14.80;99.90
24254;DHT22;12381;51.152;4.172;2022-10-16T02:19:13;14.80;99.90
24254;DHT22;12381;51.152;4.172;2022-10-16T02:21:47;14.80;99.90
24254;DHT22;12381;51.152;4.172;2022-10-16T02:24:34;14.80;99.90
24254;DHT22;12381;51.152;4.172;2022-10-16T02:29:32;14.80;99.90
24254;DHT22;12381;51.152;4.172;2022-10-16T02:32:04;14.80;99.90
24254;DHT22;12381;51.152;4.172;2022-10-16T02:34:32;14.80;99.90
24254;DHT22;12381;51.152;4.172;2022-10-16T02:37:00;14.80;99.90
24254;DHT22;12381;51.152;4.172;2022-10-16T02:39:28;14.80;99.90
24254;DHT22;12381;51.152;4.172;2022-10-16T02:41:54;14.80;99.90
24254;DHT22;12381;51.152;4.172;2022-10-16T02:44:19;14.80;99.90
24254;DHT22;12381;51.152;4.172;2022-10-16T02:46:45;14.80;99.90
24254;DHT22;12381;51.152;4.172;2022-10-16T02:49:11;14.80;99.90
24254;DHT22;12381;51.152;4.172;2022-10-16T02:51:36;14.80;99.90
24254;DHT22;12381;51.152;4.172;2022-10-16T02:54:03;14.80;99.90
24254;DHT22;12381;51.152;4.172;2022-10-16T02:56:29;14.80;99.90
24254;DHT22;12381;51.152;4.172;2022-10-16T02:58:55;14.80;99.90
24254;DHT22;12381;51.152;4.172;2022-10-16T03:01:21;14.80;99.90
24254;DHT22;12381;51.152;4.172;2022-10-16T03:03:46;14.80;99.90
24254;DHT22;12381;51.152;4.172;2022-10-16T03:06:12;14.80;99.90
24254;DHT22;12381;51.152;4.172;2022-10-16T03:08:38;14.80;99.90
24254;DHT22;12381;51.152;4.172;2022-10-16T03:11:04;14.80;99.90
24254;DHT22;12381;51.152;4.172;2022-10-16T03:13:29;14.80;99.90
24254;DHT22;12381;51.152;4.172;2022-10-16T03:15:55;14.90;99.90
24254;DHT22;12381;51.152;4.172;2022-10-16T03:18:21;14.90;99.90
24254;DHT22;12381;51.152;4.172;2022-10-16T03:20:47;14.90;99.90
24254;DHT22;12381;51.152;4.172;2022-10-16T03:25:43;14.90;99.90
24254;DHT22;12381;51.152;4.172;2022-10-16T03:28:08;15.00;99.90
24254;DHT22;12381;51.152;4.172;2022-10-16T03:30:34;15.00;99.90
24254;DHT22;12381;51.152;4.172;2022-10-16T03:33:00;15.00;99.90
24254;DHT22;12381;51.152;4.172;2022-10-16T03:35:26;15.00;99.90
24254;DHT22;12381;51.152;4.172;2022-10-16T03:37:51;15.00;99.90
24254;DHT22;12381;51.152;4.172;2022-10-16T03:40:18;15.00;99.90
24254;DHT22;12381;51.152;4.172;2022-10-16T03:42:43;15.00;99.90
24254;DHT22;12381;51.152;4.172;2022-10-16T03:45:10;15.00;99.90
24254;DHT22;12381;51.152;4.172;2022-10-16T03:47:36;15.00;99.90
24254;DHT22;12381;51.152;4.172;2022-10-16T03:50:03;15.00;99.90
24254;DHT22;12381;51.152;4.172;2022-10-16T03:52:29;15.00;99.90
24254;DHT22;12381;51.152;4.172;2022-10-16T03:54:55;15.00;99.90
24254;DHT22;12381;51.152;4.172;2022-10-16T03:57:21;14.90;99.90
24254;DHT22;12381;51.152;4.172;2022-10-16T03:59:46;14.90;99.90
24254;DHT22;12381;51.152;4.172;2022-10-16T04:02:12;14.90;99.90
24254;DHT22;12381;51.152;4.172;2022-10-16T04:04:38;14.90;99.90
24254;DHT22;12381;51.152;4.172;2022-10-16T04:07:04;14.80;99.90
24254;DHT22;12381;51.152;4.172;2022-10-16T04:09:30;14.90;99.90
24254;DHT22;12381;51.152;4.172;2022-10-16T04:11:56;14.90;99.90
24254;DHT22;12381;51.152;4.172;2022-10-16T04:14:21;14.90;99.90
24254;DHT22;12381;51.152;4.172;2022-10-16T04:16:47;14.90;99.90
24254;DHT22;12381;51.152;4.172;2022-10-16T04:19:13;14.90;99.90
24254;DHT22;12381;51.152;4.172;2022-10-16T04:21:38;14.90;99.90
24254;DHT22;12381;51.152;4.172;2022-10-16T04:24:04;15.00;99.90
24254;DHT22;12381;51.152;4.172;2022-10-16T04:26:30;14.90;99.90
24254;DHT22;12381;51.152;4.172;2022-10-16T04:28:55;14.90;99.90
24254;DHT22;12381;51.152;4.172;2022-10-16T04:31:21;14.90;99.90
24254;DHT22;12381;51.152;4.172;2022-10-16T04:33:47;14.80;99.90
24254;DHT22;12381;51.152;4.172;2022-10-16T04:36:13;14.80;99.90
24254;DHT22;12381;51.152;4.172;2022-10-16T04:38:39;14.80;99.90
24254;DHT22;12381;51.152;4.172;2022-10-16T04:41:05;14.80;99.90
24254;DHT22;12381;51.152;4.172;2022-10-16T04:43:32;14.90;99.90
24254;DHT22;12381;51.152;4.172;2022-10-16T04:45:57;14.80;99.90
24254;DHT22;12381;51.152;4.172;2022-10-16T04:48:23;14.80;99.90
24254;DHT22;12381;51.152;4.172;2022-10-16T04:50:49;14.70;99.90
24254;DHT22;12381;51.152;4.172;2022-10-16T04:53:15;14.70;99.90
24254;DHT22;12381;51.152;4.172;2022-10-16T04:55:42;14.70;99.90
24254;DHT22;12381;51.152;4.172;2022-10-16T04:58:08;14.70;99.90
24254;DHT22;12381;51.152;4.172;2022-10-16T05:00:34;14.70;99.90
24254;DHT22;12381;51.152;4.172;2022-10-16T05:03:00;14.70;99.90
24254;DHT22;12381;51.152;4.172;2022-10-16T05:05:27;14.60;99.90
24254;DHT22;12381;51.152;4.172;2022-10-16T05:07:53;14.70;99.90
24254;DHT22;12381;51.152;4.172;2022-10-16T05:12:50;14.60;99.90
24254;DHT22;12381;51.152;4.172;2022-10-16T05:15:17;14.70;99.90
24254;DHT22;12381;51.152;4.172;2022-10-16T05:17:42;14.60;99.90
24254;DHT22;12381;51.152;4.172;2022-10-16T05:20:08;14.70;99.90
24254;DHT22;12381;51.152;4.172;2022-10-16T05:22:34;14.60;99.90
24254;DHT22;12381;51.152;4.172;2022-10-16T05:25:00;14.60;99.90
24254;DHT22;12381;51.152;4.172;2022-10-16T05:27:25;14.70;99.90
24254;DHT22;12381;51.152;4.172;2022-10-16T05:29:51;14.60;99.90
24254;DHT22;12381;51.152;4.172;2022-10-16T05:32:18;14.50;99.90
24254;DHT22;12381;51.152;4.172;2022-10-16T05:34:44;14.50;99.90
24254;DHT22;12381;51.152;4.172;2022-10-16T05:37:11;14.50;99.90
24254;DHT22;12381;51.152;4.172;2022-10-16T05:39:37;14.50;99.90
24254;DHT22;12381;51.152;4.172;2022-10-16T05:42:03;14.50;99.90
24254;DHT22;12381;51.152;4.172;2022-10-16T05:44:29;14.50;99.90
24254;DHT22;12381;51.152;4.172;2022-10-16T05:46:55;14.50;99.90
24254;DHT22;12381;51.152;4.172;2022-10-16T05:49:21;14.50;99.90
24254;DHT22;12381;51.152;4.172;2022-10-16T05:51:46;14.40;99.90
24254;DHT22;12381;51.152;4.172;2022-10-16T05:56:43;14.60;99.90
24254;DHT22;12381;51.152;4.172;2022-10-16T05:59:09;14.60;99.90
24254;DHT22;12381;51.152;4.172;2022-10-16T06:01:34;14.80;99.90
24254;DHT22;12381;51.152;4.172;2022-10-16T06:04:01;14.80;99.90
24254;DHT22;12381;51.152;4.172;2022-10-16T06:06:27;14.80;99.90
24254;DHT22;12381;51.152;4.172;2022-10-16T06:08:54;14.80;99.90
24254;DHT22;12381;51.152;4.172;2022-10-16T06:11:27;14.80;99.90
24254;DHT22;12381;51.152;4.172;2022-10-16T06:13:55;14.90;99.90
24254;DHT22;12381;51.152;4.172;2022-10-16T06:16:26;15.00;99.90
24254;DHT22;12381;51.152;4.172;2022-10-16T06:18:52;15.00;99.90
24254;DHT22;12381;51.152;4.172;2022-10-16T06:21:20;15.00;99.90
24254;DHT22;12381;51.152;4.172;2022-10-16T06:23:47;15.00;99.90
24254;DHT22;12381;51.152;4.172;2022-10-16T06:26:15;15.00;99.90
24254;DHT22;12381;51.152;4.172;2022-10-16T06:28:41;15.10;99.90
24254;DHT22;12381;51.152;4.172;2022-10-16T06:31:08;15.00;99.90
24254;DHT22;12381;51.152;4.172;2022-10-16T06:33:34;15.00;99.90
24254;DHT22;12381;51.152;4.172;2022-10-16T06:36:02;15.00;99.90
24254;DHT22;12381;51.152;4.172;2022-10-16T06:38:28;15.00;99.90
24254;DHT22;12381;51.152;4.172;2022-10-16T06:40:54;14.90;99.90
24254;DHT22;12381;51.152;4.172;2022-10-16T06:43:19;14.80;99.90
24254;DHT22;12381;51.152;4.172;2022-10-16T06:45:54;14.80;99.90
24254;DHT22;12381;51.152;4.172;2022-10-16T06:48:20;14.70;99.90
24254;DHT22;12381;51.152;4.172;2022-10-16T06:53:34;14.70;99.90
24254;DHT22;12381;51.152;4.172;2022-10-16T06:56:08;14.70;99.90
24254;DHT22;12381;51.152;4.172;2022-10-16T06:58:34;14.70;99.90
24254;DHT22;12381;51.152;4.172;2022-10-16T07:00:59;14.70;99.90
24254;DHT22;12381;51.152;4.172;2022-10-16T07:03:25;14.70;99.90
24254;DHT22;12381;51.152;4.172;2022-10-16T07:05:51;14.70;99.90
24254;DHT22;12381;51.152;4.172;2022-10-16T07:08:16;14.80;99.90
24254;DHT22;12381;51.152;4.172;2022-10-16T07:10:42;14.80;99.90
24254;DHT22;12381;51.152;4.172;2022-10-16T07:13:08;14.80;99.90
24254;DHT22;12381;51.152;4.172;2022-10-16T07:15:34;14.80;99.90
24254;DHT22;12381;51.152;4.172;2022-10-16T07:17:59;14.80;99.90
24254;DHT22;12381;51.152;4.172;2022-10-16T07:20:25;14.80;99.90
24254;DHT22;12381;51.152;4.172;2022-10-16T07:22:52;14.80;99.90
24254;DHT22;12381;51.152;4.172;2022-10-16T07:25:17;14.90;99.90
24254;DHT22;12381;51.152;4.172;2022-10-16T07:27:43;14.80;99.90
24254;DHT22;12381;51.152;4.172;2022-10-16T07:30:09;14.90;99.90
24254;DHT22;12381;51.152;4.172;2022-10-16T07:32:35;14.90;99.90
24254;DHT22;12381;51.152;4.172;2022-10-16T07:35:00;15.00;99.90
24254;DHT22;12381;51.152;4.172;2022-10-16T07:37:26;15.00;99.90
24254;DHT22;12381;51.152;4.172;2022-10-16T07:39:52;15.00;99.90
24254;DHT22;12381;51.152;4.172;2022-10-16T07:42:17;15.10;99.90
24254;DHT22;12381;51.152;4.172;2022-10-16T07:44:43;15.00;99.90
24254;DHT22;12381;51.152;4.172;2022-10-16T07:47:09;15.10;99.90
24254;DHT22;12381;51.152;4.172;2022-10-16T07:49:34;15.20;99.90
24254;DHT22;12381;51.152;4.172;2022-10-16T07:52:00;15.10;99.90
24254;DHT22;12381;51.152;4.172;2022-10-16T07:54:26;15.10;99.90
24254;DHT22;12381;51.152;4.172;2022-10-16T07:56:51;15.20;99.90
24254;DHT22;12381;51.152;4.172;2022-10-16T07:59:17;15.20;99.90
24254;DHT22;12381;51.152;4.172;2022-10-16T08:01:43;15.30;99.90
24254;DHT22;12381;51.152;4.172;2022-10-16T08:04:09;15.40;99.90
24254;DHT22;12381;51.152;4.172;2022-10-16T08:09:09;15.50;99.90
24254;DHT22;12381;51.152;4.172;2022-10-16T08:11:35;15.50;99.90
24254;DHT22;12381;51.152;4.172;2022-10-16T08:14:01;15.50;99.90
24254;DHT22;12381;51.152;4.172;2022-10-16T08:16:26;15.60;99.90
24254;DHT22;12381;51.152;4.172;2022-10-16T08:18:52;15.70;99.90
24254;DHT22;12381;51.152;4.172;2022-10-16T08:21:20;15.80;99.90
24254;DHT22;12381;51.152;4.172;2022-10-16T08:23:46;15.90;99.90
24254;DHT22;12381;51.152;4.172;2022-10-16T08:26:12;15.80;99.90
24254;DHT22;12381;51.152;4.172;2022-10-16T08:28:39;15.90;99.90
24254;DHT22;12381;51.152;4.172;2022-10-16T08:31:12;15.90;99.90
24254;DHT22;12381;51.152;4.172;2022-10-16T08:33:38;16.00;99.90
24254;DHT22;12381;51.152;4.172;2022-10-16T08:36:06;16.00;99.90
24254;DHT22;12381;51.152;4.172;2022-10-16T08:38:33;16.00;99.90
24254;DHT22;12381;51.152;4.172;2022-10-16T08:44:08;16.10;99.90
24254;DHT22;12381;51.152;4.172;2022-10-16T08:47:05;16.20;99.90
24254;DHT22;12381;51.152;4.172;2022-10-16T08:49:35;16.30;99.90
24254;DHT22;12381;51.152;4.172;2022-10-16T08:52:01;16.20;99.90
24254;DHT22;12381;51.152;4.172;2022-10-16T08:54:32;16.10;99.90
24254;DHT22;12381;51.152;4.172;2022-10-16T08:57:12;16.20;99.90
24254;DHT22;12381;51.152;4.172;2022-10-16T08:59:39;16.30;99.90
24254;DHT22;12381;51.152;4.172;2022-10-16T09:07:32;16.40;99.90
24254;DHT22;12381;51.152;4.172;2022-10-16T09:16:24;16.30;99.90
24254;DHT22;12381;51.152;4.172;2022-10-16T09:21:31;16.60;99.90
24254;DHT22;12381;51.152;4.172;2022-10-16T09:26:38;16.70;99.90
24254;DHT22;12381;51.152;4.172;2022-10-16T09:29:04;16.70;99.90
24254;DHT22;12381;51.152;4.172;2022-10-16T09:31:29;16.80;99.90
24254;DHT22;12381;51.152;4.172;2022-10-16T09:33:58;16.80;99.90
24254;DHT22;12381;51.152;4.172;2022-10-16T09:36:26;17.00;99.90
24254;DHT22;12381;51.152;4.172;2022-10-16T09:39:05;16.90;99.90
24254;DHT22;12381;51.152;4.172;2022-10-16T09:41:35;16.90;99.90
24254;DHT22;12381;51.152;4.172;2022-10-16T09:44:05;16.90;99.90
24254;DHT22;12381;51.152;4.172;2022-10-16T09:46:39;17.00;99.90
24254;DHT22;12381;51.152;4.172;2022-10-16T09:49:22;17.00;99.90
24254;DHT22;12381;51.152;4.172;2022-10-16T09:51:48;17.10;99.90
24254;DHT22;12381;51.152;4.172;2022-10-16T09:54:17;17.30;99.90
24254;DHT22;12381;51.152;4.172;2022-10-16T09:56:42;17.50;99.90
24254;DHT22;12381;51.152;4.172;2022-10-16T09:59:14;17.50;99.90
24254;DHT22;12381;51.152;4.172;2022-10-16T10:02:01;17.50;99.90
24254;DHT22;12381;51.152;4.172;2022-10-16T10:04:38;17.50;99.90
24254;DHT22;12381;51.152;4.172;2022-10-16T10:07:04;17.50;99.90
24254;DHT22;12381;51.152;4.172;2022-10-16T10:09:40;17.40;99.90
24254;DHT22;12381;51.152;4.172;2022-10-16T10:12:40;17.60;99.90
24254;DHT22;12381;51.152;4.172;2022-10-16T10:15:10;17.80;99.90
24254;DHT22;12381;51.152;4.172;2022-10-16T10:17:46;18.10;99.90
24254;DHT22;12381;51.152;4.172;2022-10-16T10:22:51;18.20;99.90
24254;DHT22;12381;51.152;4.172;2022-10-16T10:25:42;18.20;99.90
24254;DHT22;12381;51.152;4.172;2022-10-16T10:36:22;18.30;99.90
24254;DHT22;12381;51.152;4.172;2022-10-16T10:49:54;18.50;99.90
24254;DHT22;12381;51.152;4.172;2022-10-16T10:52:51;18.50;99.90
24254;DHT22;12381;51.152;4.172;2022-10-16T11:01:14;19.10;99.90
24254;DHT22;12381;51.152;4.172;2022-10-16T11:07:16;19.70;99.90
24254;DHT22;12381;51.152;4.172;2022-10-16T11:09:49;19.60;99.90
24254;DHT22;12381;51.152;4.172;2022-10-16T11:12:21;19.80;99.90
24254;DHT22;12381;51.152;4.172;2022-10-16T11:15:14;19.90;99.90
24254;DHT22;12381;51.152;4.172;2022-10-16T11:20:31;20.30;99.90
24254;DHT22;12381;51.152;4.172;2022-10-16T11:23:09;20.50;99.90
24254;DHT22;12381;51.152;4.172;2022-10-16T11:25:36;20.40;99.90
24254;DHT22;12381;51.152;4.172;2022-10-16T11:28:20;20.20;99.90
24254;DHT22;12381;51.152;4.172;2022-10-16T11:31:02;20.40;99.90
24254;DHT22;12381;51.152;4.172;2022-10-16T11:33:37;20.50;99.90
24254;DHT22;12381;51.152;4.172;2022-10-16T11:36:17;20.40;99.90
24254;DHT22;12381;51.152;4.172;2022-10-16T11:49:58;20.80;99.90
24254;DHT22;12381;51.152;4.172;2022-10-16T11:52:43;20.60;99.90
24254;DHT22;12381;51.152;4.172;2022-10-16T11:55:16;20.40;99.90
24254;DHT22;12381;51.152;4.172;2022-10-16T11:57:58;20.40;99.90
24254;DHT22;12381;51.152;4.172;2022-10-16T12:00:36;20.60;99.90
24254;DHT22;12381;51.152;4.172;2022-10-16T12:08:43;21.00;99.90
24254;DHT22;12381;51.152;4.172;2022-10-16T12:11:37;21.10;99.90
24254;DHT22;12381;51.152;4.172;2022-10-16T12:16:59;21.40;99.90
24254;DHT22;12381;51.152;4.172;2022-10-16T12:19:27;21.60;99.90
24254;DHT22;12381;51.152;4.172;2022-10-16T12:21:56;21.60;99.90
24254;DHT22;12381;51.152;4.172;2022-10-16T12:24:35;21.60;99.90
24254;DHT22;12381;51.152;4.172;2022-10-16T12:27:04;21.60;99.90
24254;DHT22;12381;51.152;4.172;2022-10-16T12:29:37;21.30;99.90
24254;DHT22;12381;51.152;4.172;2022-10-16T12:32:30;21.20;99.90
24254;DHT22;12381;51.152;4.172;2022-10-16T12:34:57;21.30;99.90
24254;DHT22;12381;51.152;4.172;2022-10-16T12:39:52;21.00;99.90
24254;DHT22;12381;51.152;4.172;2022-10-16T12:42:39;20.80;99.90
24254;DHT22;12381;51.152;4.172;2022-10-16T12:48:01;20.60;99.90
24254;DHT22;12381;51.152;4.172;2022-10-16T12:50:36;20.70;99.90
24254;DHT22;12381;51.152;4.172;2022-10-16T13:04:27;21.20;99.90
24254;DHT22;12381;51.152;4.172;2022-10-16T13:10:02;20.80;99.90
24254;DHT22;12381;51.152;4.172;2022-10-16T13:12:47;20.50;99.90
24254;DHT22;12381;51.152;4.172;2022-10-16T13:24:09;20.50;99.90
24254;DHT22;12381;51.152;4.172;2022-10-16T13:29:13;20.50;99.90
24254;DHT22;12381;51.152;4.172;2022-10-16T13:31:39;20.40;99.90
24254;DHT22;12381;51.152;4.172;2022-10-16T13:34:06;20.30;99.90
24254;DHT22;12381;51.152;4.172;2022-10-16T13:36:45;20.10;99.90
24254;DHT22;12381;51.152;4.172;2022-10-16T13:39:23;20.00;99.90
24254;DHT22;12381;51.152;4.172;2022-10-16T13:42:11;20.00;99.90
24254;DHT22;12381;51.152;4.172;2022-10-16T13:44:48;19.90;99.90
24254;DHT22;12381;51.152;4.172;2022-10-16T13:47:21;19.80;99.90
24254;DHT22;12381;51.152;4.172;2022-10-16T13:49:58;19.80;99.90
24254;DHT22;12381;51.152;4.172;2022-10-16T13:52:24;19.80;99.90
24254;DHT22;12381;51.152;4.172;2022-10-16T13:54:49;19.80;99.90
24254;DHT22;12381;51.152;4.172;2022-10-16T13:57:17;19.70;99.90
24254;DHT22;12381;51.152;4.172;2022-10-16T13:59:43;19.70;99.90
24254;DHT22;12381;51.152;4.172;2022-10-16T14:02:20;19.70;99.90
24254;DHT22;12381;51.152;4.172;2022-10-16T14:04:47;19.80;99.90
24254;DHT22;12381;51.152;4.172;2022-10-16T14:07:21;19.80;99.90
24254;DHT22;12381;51.152;4.172;2022-10-16T14:09:50;19.80;99.90
24254;DHT22;12381;51.152;4.172;2022-10-16T14:12:16;19.80;99.90
24254;DHT22;12381;51.152;4.172;2022-10-16T14:14:44;19.80;99.90
24254;DHT22;12381;51.152;4.172;2022-10-16T14:17:24;19.70;99.90
24254;DHT22;12381;51.152;4.172;2022-10-16T14:19:54;19.60;99.90
24254;DHT22;12381;51.152;4.172;2022-10-16T14:22:42;19.60;99.90
24254;DHT22;12381;51.152;4.172;2022-10-16T14:25:37;19.50;99.90
24254;DHT22;12381;51.152;4.172;2022-10-16T14:28:18;19.50;99.90
24254;DHT22;12381;51.152;4.172;2022-10-16T14:31:00;19.50;99.90
24254;DHT22;12381;51.152;4.172;2022-10-16T14:38:40;19.50;99.90
24254;DHT22;12381;51.152;4.172;2022-10-16T14:41:07;19.50;99.90
24254;DHT22;12381;51.152;4.172;2022-10-16T14:43:36;19.50;99.90
24254;DHT22;12381;51.152;4.172;2022-10-16T14:46:06;19.50;99.90
24254;DHT22;12381;51.152;4.172;2022-10-16T14:48:32;19.40;99.90
24254;DHT22;12381;51.152;4.172;2022-10-16T14:50:58;19.30;99.90
24254;DHT22;12381;51.152;4.172;2022-10-16T14:53:23;19.30;99.90
24254;DHT22;12381;51.152;4.172;2022-10-16T14:55:49;19.30;99.90
24254;DHT22;12381;51.152;4.172;2022-10-16T14:58:19;19.30;99.90
24254;DHT22;12381;51.152;4.172;2022-10-16T15:00:45;19.30;99.90
24254;DHT22;12381;51.152;4.172;2022-10-16T15:03:11;19.30;99.90
24254;DHT22;12381;51.152;4.172;2022-10-16T15:05:37;19.30;99.90
24254;DHT22;12381;51.152;4.172;2022-10-16T15:08:02;19.20;99.90
24254;DHT22;12381;51.152;4.172;2022-10-16T15:10:31;19.20;99.90
24254;DHT22;12381;51.152;4.172;2022-10-16T15:12:58;19.20;99.90
24254;DHT22;12381;51.152;4.172;2022-10-16T15:15:43;19.10;99.90
24254;DHT22;12381;51.152;4.172;2022-10-16T15:20:40;19.10;99.90
24254;DHT22;12381;51.152;4.172;2022-10-16T15:23:17;19.00;99.90
24254;DHT22;12381;51.152;4.172;2022-10-16T15:28:10;19.00;99.90
24254;DHT22;12381;51.152;4.172;2022-10-16T15:30:36;19.00;99.90
24254;DHT22;12381;51.152;4.172;2022-10-16T15:33:03;18.90;99.90
24254;DHT22;12381;51.152;4.172;2022-10-16T15:35:29;18.90;99.90
24254;DHT22;12381;51.152;4.172;2022-10-16T15:37:55;18.90;99.90
24254;DHT22;12381;51.152;4.172;2022-10-16T15:40:21;18.90;99.90
24254;DHT22;12381;51.152;4.172;2022-10-16T15:42:48;18.90;99.90
24254;DHT22;12381;51.152;4.172;2022-10-16T15:45:15;18.90;99.90
24254;DHT22;12381;51.152;4.172;2022-10-16T15:47:41;18.80;99.90
24254;DHT22;12381;51.152;4.172;2022-10-16T15:50:10;18.80;99.90
24254;DHT22;12381;51.152;4.172;2022-10-16T15:52:36;18.80;99.90
24254;DHT22;12381;51.152;4.172;2022-10-16T15:55:02;18.80;99.90
24254;DHT22;12381;51.152;4.172;2022-10-16T15:57:28;18.70;99.90
24254;DHT22;12381;51.152;4.172;2022-10-16T15:59:55;18.80;99.90
24254;DHT22;12381;51.152;4.172;2022-10-16T16:02:20;18.70;99.90
24254;DHT22;12381;51.152;4.172;2022-10-16T16:04:46;18.70;99.90
24254;DHT22;12381;51.152;4.172;2022-10-16T16:07:11;18.70;99.90
24254;DHT22;12381;51.152;4.172;2022-10-16T16:09:37;18.70;99.90
24254;DHT22;12381;51.152;4.172;2022-10-16T16:12:03;18.60;99.90
24254;DHT22;12381;51.152;4.172;2022-10-16T16:14:29;18.60;99.90
24254;DHT22;12381;51.152;4.172;2022-10-16T16:16:55;18.70;99.90
24254;DHT22;12381;51.152;4.172;2022-10-16T16:19:21;18.60;99.90
24254;DHT22;12381;51.152;4.172;2022-10-16T16:21:47;18.60;99.90
24254;DHT22;12381;51.152;4.172;2022-10-16T16:24:13;18.50;99.90
24254;DHT22;12381;51.152;4.172;2022-10-16T16:26:39;18.50;99.90
24254;DHT22;12381;51.152;4.172;2022-10-16T16:29:12;18.50;99.90
24254;DHT22;12381;51.152;4.172;2022-10-16T16:31:39;18.40;99.90
24254;DHT22;12381;51.152;4.172;2022-10-16T16:34:05;18.30;99.90
24254;DHT22;12381;51.152;4.172;2022-10-16T16:36:31;18.20;99.90
24254;DHT22;12381;51.152;4.172;2022-10-16T16:38:57;18.20;99.90
24254;DHT22;12381;51.152;4.172;2022-10-16T16:41:25;18.20;99.90
24254;DHT22;12381;51.152;4.172;2022-10-16T16:43:51;18.10;99.90
24254;DHT22;12381;51.152;4.172;2022-10-16T16:46:18;18.10;99.90
24254;DHT22;12381;51.152;4.172;2022-10-16T16:48:44;18.10;99.90
24254;DHT22;12381;51.152;4.172;2022-10-16T16:51:13;18.00;99.90
24254;DHT22;12381;51.152;4.172;2022-10-16T16:53:50;18.00;99.90
24254;DHT22;12381;51.152;4.172;2022-10-16T16:56:16;18.00;99.90
24254;DHT22;12381;51.152;4.172;2022-10-16T16:58:45;18.00;99.90
24254;DHT22;12381;51.152;4.172;2022-10-16T17:01:11;18.00;99.90
24254;DHT22;12381;51.152;4.172;2022-10-16T17:03:37;18.00;99.90
24254;DHT22;12381;51.152;4.172;2022-10-16T17:06:05;17.90;99.90
24254;DHT22;12381;51.152;4.172;2022-10-16T17:08:32;17.90;99.90
24254;DHT22;12381;51.152;4.172;2022-10-16T17:10:58;17.90;99.90
24254;DHT22;12381;51.152;4.172;2022-10-16T17:13:28;18.00;99.90
24254;DHT22;12381;51.152;4.172;2022-10-16T17:15:54;18.00;99.90
24254;DHT22;12381;51.152;4.172;2022-10-16T17:18:21;17.90;99.90
24254;DHT22;12381;51.152;4.172;2022-10-16T17:20:48;17.90;99.90
24254;DHT22;12381;51.152;4.172;2022-10-16T17:23:16;17.90;99.90
24254;DHT22;12381;51.152;4.172;2022-10-16T17:25:42;17.90;99.90
24254;DHT22;12381;51.152;4.172;2022-10-16T17:28:09;17.90;99.90
24254;DHT22;12381;51.152;4.172;2022-10-16T17:30:37;17.90;99.90
24254;DHT22;12381;51.152;4.172;2022-10-16T17:33:04;17.90;99.90
24254;DHT22;12381;51.152;4.172;2022-10-16T17:35:39;17.90;99.90
24254;DHT22;12381;51.152;4.172;2022-10-16T17:38:05;17.90;99.90
24254;DHT22;12381;51.152;4.172;2022-10-16T17:40:31;17.90;99.90
24254;DHT22;12381;51.152;4.172;2022-10-16T17:42:57;17.90;99.90
24254;DHT22;12381;51.152;4.172;2022-10-16T17:45:22;17.90;99.90
24254;DHT22;12381;51.152;4.172;2022-10-16T17:47:48;17.90;99.90
24254;DHT22;12381;51.152;4.172;2022-10-16T17:50:14;17.90;99.90
24254;DHT22;12381;51.152;4.172;2022-10-16T17:52:40;17.90;99.90
24254;DHT22;12381;51.152;4.172;2022-10-16T17:57:35;17.90;99.90
24254;DHT22;12381;51.152;4.172;2022-10-16T18:00:02;17.90;99.90
24254;DHT22;12381;51.152;4.172;2022-10-16T18:02:28;17.80;99.90
24254;DHT22;12381;51.152;4.172;2022-10-16T18:04:54;17.90;99.90
24254;DHT22;12381;51.152;4.172;2022-10-16T18:07:20;17.90;99.90
24254;DHT22;12381;51.152;4.172;2022-10-16T18:09:46;17.80;99.90
24254;DHT22;12381;51.152;4.172;2022-10-16T18:12:11;17.80;99.90
24254;DHT22;12381;51.152;4.172;2022-10-16T18:14:38;17.80;99.90